Time;durP1;ratioP1;P1;durP2;ratioP2;P2;SDS_P1;SDS_P2;PMS_P1;PMS_P2;Temp;Humidity;BMP_temperature;BMP_pressure;BME280_temperature;BME280_humidity;BME280_pressure;Samples;Min_cycle;Max_cycle;Signal;HPM_P1;HPM_P2
2023/11/27 00:02:01;;;;;;;0.30;0.30;;;;;;;-147.86;100.00;53566.81;105677;1259;73760;-45
2023/11/27 00:04:28;;;;;;;0.50;0.50;;;;;;;-147.86;100.00;53560.14;105804;1254;61226;-47
2023/11/27 00:06:56;;;;;;;0.30;0.30;;;;;;;-147.86;100.00;53561.71;105909;1254;60253;-44
2023/11/27 00:09:23;;;;;;;1.60;1.40;;;;;;;-147.86;100.00;53553.46;105828;1255;73064;-45
2023/11/27 00:11:52;;;;;;;0.70;0.50;;;;;;;-147.86;100.00;53565.24;105864;1258;65440;-44
2023/11/27 00:14:20;;;;;;;1.20;0.70;;;;;;;-147.86;100.00;53559.36;105853;1258;73093;-46
2023/11/27 00:16:47;;;;;;;0.40;0.40;;;;;;;-147.86;100.00;53553.07;105940;1257;60992;-46
2023/11/27 00:19:14;;;;;;;0.60;0.60;;;;;;;-147.86;100.00;53553.07;105836;1253;60536;-44
2023/11/27 00:21:41;;;;;;;0.50;0.50;;;;;;;-147.86;100.00;53555.04;105859;1256;72730;-43
2023/11/27 00:24:08;;;;;;;0.80;0.70;;;;;;;-147.86;100.00;53571.52;105857;1257;64546;-45
2023/11/27 00:26:35;;;;;;;0.70;0.70;;;;;;;-147.86;100.00;53562.89;105880;1254;72624;-44
2023/11/27 00:29:02;;;;;;;0.60;0.60;;;;;;;-147.86;100.00;53570.74;105866;1257;60918;-46
2023/11/27 00:31:29;;;;;;;0.60;0.60;;;;;;;-147.86;100.00;53549.14;105846;1254;60635;-45
2023/11/27 00:33:56;;;;;;;0.70;0.70;;;;;;;-147.86;100.00;53565.24;105829;1257;73730;-45
2023/11/27 00:36:24;;;;;;;1.10;0.50;;;;;;;-147.86;100.00;53529.13;105824;1257;66109;-45
2023/11/27 00:38:51;;;;;;;0.70;0.70;;;;;;;-147.86;100.00;53553.86;105924;1254;71757;-47
2023/11/27 00:41:18;;;;;;;0.60;0.60;;;;;;;-147.86;100.00;53579.77;105810;1257;61164;-45
2023/11/27 00:43:45;;;;;;;0.70;0.50;;;;;;;-147.86;100.00;53546.79;105867;1254;60469;-48
2023/11/27 00:46:12;;;;;;;0.70;0.70;;;;;;;-147.86;100.00;53577.80;105838;1254;74330;-48
2023/11/27 00:48:42;;;;;;;0.70;0.70;;;;;;;-147.86;100.00;53551.50;105960;1257;65446;-46
2023/11/27 00:51:13;;;;;;;0.70;0.70;;;;;;;-147.86;100.00;53547.18;105880;1254;72594;-46
2023/11/27 00:53:40;;;;;;;0.70;0.60;;;;;;;-147.86;100.00;53561.71;105855;1257;61024;-46
2023/11/27 00:56:08;;;;;;;1.50;1.00;;;;;;;-147.86;100.00;53548.75;105892;1254;60537;-46
2023/11/27 00:58:35;;;;;;;1.00;0.90;;;;;;;-147.86;100.00;53554.64;105889;1254;72605;-48
2023/11/27 01:01:05;;;;;;;0.90;0.90;;;;;;;-147.86;100.00;53542.86;105869;1254;65506;-47
2023/11/27 01:03:32;;;;;;;0.70;0.70;;;;;;;-147.86;100.00;53540.51;105559;1254;72518;-44
2023/11/27 01:05:59;;;;;;;1.60;0.90;;;;;;;-147.86;100.00;53542.47;105737;1257;61109;-44
2023/11/27 01:08:26;;;;;;;1.20;1.10;;;;;;;-147.86;100.00;53550.32;105617;1254;60441;-44
2023/11/27 01:10:53;;;;;;;1.60;0.50;;;;;;;-147.86;100.00;53551.11;105767;1254;73795;-47
2023/11/27 01:13:20;;;;;;;1.10;1.10;;;;;;;-147.86;100.00;53557.78;105664;1258;65488;-42
2023/11/27 01:15:47;;;;;;;0.90;0.70;;;;;;;-147.86;100.00;53550.71;105882;1254;72624;-43
2023/11/27 01:18:14;;;;;;;1.20;1.10;;;;;;;-147.86;100.00;53550.71;105832;1257;61415;-47
2023/11/27 01:20:42;;;;;;;1.40;1.00;;;;;;;-147.86;100.00;53561.71;105847;1254;60465;-45
2023/11/27 01:23:10;;;;;;;1.40;1.30;;;;;;;-147.86;100.00;53553.07;105890;1257;74262;-44
2023/11/27 01:25:37;;;;;;;1.00;0.90;;;;;;;-147.86;100.00;53536.19;105719;1258;65526;-50
2023/11/27 01:28:04;;;;;;;1.00;0.90;;;;;;;-147.86;100.00;53551.50;105969;1254;72693;-44
2023/11/27 01:30:32;;;;;;;0.90;0.90;;;;;;;-147.86;100.00;53541.29;105833;1257;61109;-44
2023/11/27 01:33:04;;;;;;;2.20;0.90;;;;;;;-147.86;100.00;53567.20;105855;1254;60402;-45
2023/11/27 01:35:32;;;;;;;1.00;1.00;;;;;;;-147.86;100.00;53542.07;105843;1257;73766;-46
2023/11/27 01:37:59;;;;;;;1.20;1.10;;;;;;;-147.86;100.00;53573.49;105951;1254;65501;-47
2023/11/27 01:40:26;;;;;;;1.60;1.40;;;;;;;-147.86;100.00;53563.67;105791;1253;71778;-45
2023/11/27 01:42:52;;;;;;;1.70;1.60;;;;;;;-147.86;100.00;53551.50;105873;1257;60945;-45
2023/11/27 01:45:19;;;;;;;3.00;1.00;;;;;;;-147.86;100.00;53560.53;105854;1253;60534;-43
2023/11/27 01:47:46;;;;;;;1.60;1.50;;;;;;;-147.86;100.00;53546.00;105856;1254;73835;-44
2023/11/27 01:50:13;;;;;;;1.00;1.00;;;;;;;-147.86;100.00;53563.67;105809;1257;65628;-47
2023/11/27 01:52:40;;;;;;;1.40;1.30;;;;;;;-147.86;100.00;53559.35;105813;1254;72648;-46
2023/11/27 01:55:08;;;;;;;1.60;1.50;;;;;;;-147.86;100.00;53571.91;105854;1257;61150;-46
2023/11/27 01:57:34;;;;;;;2.90;1.70;;;;;;;-147.86;100.00;53567.60;105873;1254;60658;-45
2023/11/27 02:00:03;;;;;;;2.20;2.00;;;;;;;-147.86;100.00;53553.86;105673;1254;73889;-45
2023/11/27 02:02:44;;;;;;;1.60;1.50;;;;;;;-147.86;100.00;53564.46;105863;1257;63326;-48
2023/11/27 02:05:14;;;;;;;1.40;1.20;;;;;;;-147.86;100.00;53552.68;105680;1254;72453;-44
2023/11/27 02:07:42;;;;;;;2.20;1.50;;;;;;;-147.86;100.00;53563.67;105831;1255;60988;-44
2023/11/27 02:10:09;;;;;;;1.50;1.40;;;;;;;-147.86;100.00;53548.36;105812;1254;60430;-46
2023/11/27 02:12:36;;;;;;;1.20;1.10;;;;;;;-147.86;100.00;53566.81;105901;1258;72314;-45
2023/11/27 02:15:04;;;;;;;1.60;1.50;;;;;;;-147.86;100.00;53551.50;105835;1257;65375;-43
2023/11/27 02:17:32;;;;;;;2.00;1.70;;;;;;;-147.86;100.00;53555.82;105830;1254;72608;-43
2023/11/27 02:19:58;;;;;;;2.60;2.40;;;;;;;-147.86;100.00;53569.96;105814;1257;61111;-48
2023/11/27 02:22:25;;;;;;;1.60;1.50;;;;;;;-147.86;100.00;53560.53;105766;1253;60985;-45
2023/11/27 02:24:53;;;;;;;2.50;2.30;;;;;;;-147.86;100.00;53565.24;105730;1254;72732;-44
2023/11/27 02:27:21;;;;;;;2.40;1.80;;;;;;;-147.86;100.00;53548.75;105846;1254;65353;-45
2023/11/27 04:08:05;;;;;;;5.20;4.70;;;;;;;-147.86;100.00;52367.00;103318;1282;614714;-43
2023/11/27 04:10:36;;;;;;;6.10;4.90;;;;;;;-147.86;100.00;52755.38;104826;1264;132799;-44
2023/11/27 04:13:06;;;;;;;3.90;3.30;;;;;;;-147.86;100.00;52658.82;105176;1264;60372;-44
2023/11/27 04:15:34;;;;;;;22.70;4.30;;;;;;;-147.86;100.00;52611.72;105091;1264;72246;-44
2023/11/27 04:18:01;;;;;;;5.30;4.50;;;;;;;-147.86;100.00;52630.96;104969;1264;65413;-44
2023/11/27 04:20:28;;;;;;;6.10;4.60;;;;;;;-147.86;100.00;52603.87;105133;1263;72633;-44
2023/11/27 04:22:56;;;;;;;5.90;4.40;;;;;;;-147.86;100.00;52619.57;105279;1262;61058;-45
2023/11/27 04:25:22;;;;;;;4.40;3.90;;;;;;;-147.86;100.00;52612.50;105198;1260;59344;-44
2023/11/27 04:27:50;;;;;;;5.50;4.20;;;;;;;-147.86;100.00;52653.32;105278;1260;72215;-43
2023/11/27 04:30:17;;;;;;;5.10;4.40;;;;;;;-147.86;100.00;52641.16;105204;1265;65485;-44
2023/11/27 04:32:45;;;;;;;6.20;4.00;;;;;;;-147.86;100.00;52651.36;105255;1261;72621;-44
2023/11/27 04:35:13;;;;;;;3.60;3.20;;;;;;;-147.86;100.00;52666.27;105230;1265;61184;-44
2023/11/27 04:37:40;;;;;;;8.20;3.90;;;;;;;-147.86;100.00;52692.57;105318;1260;60180;-43
2023/11/27 04:40:10;;;;;;;4.70;3.50;;;;;;;-147.86;100.00;52698.47;105260;1263;73015;-44
2023/11/27 04:42:38;;;;;;;3.30;2.90;;;;;;;-147.86;100.00;52706.32;105246;1265;65809;-44
2023/11/27 04:45:08;;;;;;;5.90;4.30;;;;;;;-147.86;100.00;52719.27;105214;1265;72541;-43
2023/11/27 04:47:35;;;;;;;3.40;3.10;;;;;;;-147.86;100.00;52738.11;105245;1261;59793;-44
2023/11/27 04:50:03;;;;;;;6.20;3.40;;;;;;;-147.86;100.00;52765.20;105238;1261;60410;-43
2023/11/27 04:52:30;;;;;;;3.50;2.80;;;;;;;-147.86;100.00;52765.20;105243;1265;72868;-44
2023/11/27 04:54:56;;;;;;;4.30;3.40;;;;;;;-147.86;100.00;52784.04;105226;1261;64456;-44
2023/11/27 04:57:24;;;;;;;4.20;2.70;;;;;;;-147.86;100.00;52798.16;105254;1260;72725;-44
2023/11/27 04:59:51;;;;;;;2.90;2.20;;;;;;;-147.86;100.00;52817.01;105254;1263;61185;-44
2023/11/27 05:02:18;;;;;;;5.80;3.40;;;;;;;-147.86;100.00;52833.89;105221;1262;60321;-44
2023/11/27 05:04:49;;;;;;;4.20;3.80;;;;;;;-147.86;100.00;52843.70;105228;1261;73053;-44
2023/11/27 05:07:15;;;;;;;4.60;4.10;;;;;;;-147.86;100.00;52856.66;105252;1264;65590;-44
2023/11/27 05:09:43;;;;;;;3.70;3.40;;;;;;;-147.86;100.00;52871.18;105214;1260;72619;-43
2023/11/27 05:41:31;;;;;;;;;;;;;;;-147.86;100.00;52166.81;103216;1287;616396;-43
2023/11/27 05:44:03;;;;;;;3.70;2.50;;;;;;;-147.86;100.00;52561.48;104793;1271;114094;-43
2023/11/27 06:42:32;;;;;;;3.40;3.10;;;;;;;-147.86;100.00;52127.59;102470;1289;613256;-42
2023/11/27 06:44:59;;;;;;;7.20;3.30;;;;;;;-147.86;100.00;52537.14;105109;1269;131548;-42
2023/11/27 06:47:36;;;;;;;2.80;2.20;;;;;;;-147.86;100.00;52456.29;105204;1263;60233;-42
2023/11/27 06:50:06;;;;;;;4.80;2.80;;;;;;;-147.86;100.00;52429.21;105254;1264;72233;-43
2023/11/27 06:52:35;;;;;;;5.70;3.30;;;;;;;-147.86;100.00;52430.77;105191;1264;64261;-42
2023/11/27 06:55:03;;;;;;;2.40;2.20;;;;;;;-147.86;100.00;52416.65;105215;1263;72435;-42
2023/11/27 06:57:30;;;;;;;3.30;2.80;;;;;;;-147.86;100.00;52408.80;105251;1266;60956;-42
2023/11/27 06:59:57;;;;;;;5.90;2.50;;;;;;;-147.86;100.00;52389.56;105255;1264;60263;-42
2023/11/27 07:02:26;;;;;;;3.20;3.00;;;;;;;-147.86;100.00;52386.82;105315;1262;72189;-42
2023/11/27 07:04:55;;;;;;;2.80;2.50;;;;;;;-147.86;100.00;52381.71;105201;1266;63700;-42
2023/11/27 07:07:22;;;;;;;4.60;2.80;;;;;;;-147.86;100.00;52355.42;105207;1263;72622;-42
2023/11/27 07:09:49;;;;;;;3.10;2.90;;;;;;;-147.86;100.00;52353.06;105208;1264;61050;-42
2023/11/27 07:12:18;;;;;;;5.60;3.20;;;;;;;-147.86;100.00;52331.08;105247;1264;60360;-42
2023/11/27 07:14:48;;;;;;;6.10;2.90;;;;;;;-147.86;100.00;52333.44;105181;1264;73052;-42
2023/11/27 07:17:16;;;;;;;4.00;2.50;;;;;;;-147.86;100.00;52305.96;105229;1266;65494;-42
2023/11/27 07:19:43;;;;;;;4.20;2.60;;;;;;;-147.86;100.00;52311.07;105257;1267;72293;-42
2023/11/27 07:22:10;;;;;;;3.20;2.60;;;;;;;-147.86;100.00;52278.89;105181;1266;60999;-42
2023/11/27 07:24:40;;;;;;;5.00;3.20;;;;;;;-147.86;100.00;52248.66;105232;1264;60302;-42
2023/11/27 07:27:09;;;;;;;6.30;3.50;;;;;;;-147.86;100.00;52236.50;105206;1263;72958;-42
2023/11/27 07:29:36;;;;;;;3.50;2.90;;;;;;;-147.86;100.00;52227.07;105216;1266;65572;-42
2023/11/27 07:32:04;;;;;;;5.90;3.40;;;;;;;-147.86;100.00;52176.45;105158;1263;72532;-42
2023/11/27 07:34:31;;;;;;;8.20;2.80;;;;;;;-147.86;100.00;52154.87;105162;1264;61110;-43
2023/11/27 07:37:00;;;;;;;4.10;3.70;;;;;;;-147.86;100.00;52132.89;105163;1263;60327;-42
2023/11/27 07:39:28;;;;;;;3.10;2.40;;;;;;;-147.86;100.00;52096.78;105173;1264;73071;-42
2023/11/27 07:41:55;;;;;;;4.30;3.50;;;;;;;-147.86;100.00;52044.58;105157;1269;65468;-42
2023/11/27 07:44:25;;;;;;;4.50;3.50;;;;;;;-147.86;100.00;52020.64;105136;1267;72760;-42
2023/11/27 07:46:52;;;;;;;3.00;2.70;;;;;;;-147.86;100.00;51983.36;105186;1268;61106;-41
2023/11/27 07:49:19;;;;;;;4.00;2.90;;;;;;;-147.86;100.00;51947.65;104843;1265;60278;-41
2023/11/27 07:51:46;;;;;;;4.90;2.60;;;;;;;-147.86;100.00;51904.48;105073;1267;72932;-42
2023/11/27 07:54:15;;;;;;;6.50;3.20;;;;;;;-147.86;100.00;51873.48;105140;1268;65359;-42
2023/11/27 07:56:51;;;;;;;8.00;3.40;;;;;;;-147.86;100.00;51828.74;105140;1267;71703;-42
2023/11/27 07:59:25;;;;;;;4.20;3.20;;;;;;;-147.86;100.00;51783.22;105183;1267;60988;-43
2023/11/27 08:01:53;;;;;;;4.30;3.30;;;;;;;-147.86;100.00;51727.50;105192;1266;60167;-43
2023/11/27 08:04:22;;;;;;;6.60;3.30;;;;;;;-147.86;100.00;51671.38;105166;1266;73034;-43
2023/11/27 08:06:52;;;;;;;3.90;3.00;;;;;;;-147.86;100.00;51637.24;105159;1268;65667;-43
2023/11/27 08:09:22;;;;;;;3.90;2.80;;;;;;;-147.86;100.00;51596.04;105201;1267;72030;-42
2023/11/27 08:11:51;;;;;;;7.40;3.30;;;;;;;-147.86;100.00;51544.63;105096;1266;61090;-43
2023/11/27 08:14:18;;;;;;;4.90;2.80;;;;;;;-147.86;100.00;51492.05;105176;1267;60491;-43
2023/11/27 08:16:47;;;;;;;9.50;1.90;;;;;;;-147.86;100.00;51444.18;105163;1265;73549;-43
2023/11/27 08:19:16;;;;;;;5.10;2.20;;;;;;;-147.86;100.00;51368.45;105183;1269;65385;-43
2023/11/27 08:21:44;;;;;;;3.40;2.80;;;;;;;-147.86;100.00;51322.93;105124;1267;72493;-42
2023/11/27 08:24:14;;;;;;;5.10;3.40;;;;;;;-147.86;100.00;51276.63;105216;1266;61138;-42
2023/11/27 08:26:42;;;;;;;3.20;2.50;;;;;;;-147.86;100.00;51240.52;105164;1264;61175;-42
2023/11/27 08:29:09;;;;;;;3.00;2.70;;;;;;;-147.86;100.00;51196.19;105145;1265;72370;-42
2023/11/27 08:31:36;;;;;;;2.50;2.30;;;;;;;-147.86;100.00;51151.85;105126;1268;65457;-43
2023/11/27 08:34:09;;;;;;;5.30;3.50;;;;;;;-147.86;100.00;51109.08;105196;1267;72814;-42
2023/11/27 08:36:36;;;;;;;3.70;2.40;;;;;;;-147.86;100.00;51094.17;105144;1269;61216;-42
2023/11/27 08:39:10;;;;;;;3.00;2.70;;;;;;;-147.86;100.00;51030.22;105186;1267;60721;-42
2023/11/27 08:41:37;;;;;;;5.30;3.40;;;;;;;-147.86;100.00;50943.51;105116;1265;73077;-43
2023/11/27 08:44:08;;;;;;;4.80;3.10;;;;;;;-147.86;100.00;50869.75;105634;1257;65257;-43
2023/11/27 08:46:38;;;;;;;3.00;2.40;;;;;;;-147.86;100.00;50790.50;105595;1257;72772;-43
2023/11/27 08:49:05;;;;;;;7.70;1.90;;;;;;;-147.86;100.00;50707.32;105632;1260;61138;-43
2023/11/27 08:51:32;;;;;;;3.20;2.90;;;;;;;-147.86;100.00;50574.33;105565;1258;61618;-43
2023/11/27 08:53:58;;;;;;;7.30;3.80;;;;;;;-147.86;100.00;50461.35;105577;1257;73207;-43
2023/11/27 08:56:26;;;;;;;6.60;3.70;;;;;;;-147.86;100.00;50356.61;105627;1256;64567;-43
2023/11/27 08:58:53;;;;;;;4.60;2.90;;;;;;;-147.86;100.00;50245.98;105635;1257;73907;-42
2023/11/27 09:01:21;;;;;;;3.40;2.60;;;;;;;-147.86;100.00;50134.97;105618;1259;61221;-42
2023/11/27 09:03:50;;;;;;;5.70;3.90;;;;;;;-147.86;100.00;49997.68;105673;1257;60798;-43
2023/11/27 09:06:20;;;;;;;6.50;3.00;;;;;;;-147.86;100.00;49873.73;105560;1257;72165;-43
2023/11/27 09:08:47;;;;;;;4.00;3.20;;;;;;;-147.86;100.00;49790.57;105705;1257;65361;-42
2023/11/27 09:11:15;;;;;;;4.70;3.40;;;;;;;-147.86;100.00;49675.66;105601;1257;72512;-43
2023/11/27 09:13:51;;;;;;;4.40;3.10;;;;;;;-147.86;100.00;49587.02;105599;1260;61010;-43
2023/11/27 09:16:18;;;;;;;2.90;2.70;;;;;;;-147.86;100.00;49493.67;105627;1257;61128;-43
2023/11/27 09:18:45;;;;;;;3.30;3.00;;;;;;;-147.86;100.00;49420.72;105643;1257;73413;-42
2023/11/27 09:21:12;;;;;;;5.50;3.40;;;;;;;-147.86;100.00;49365.03;105624;1259;65422;-43
2023/11/27 09:23:42;;;;;;;2.80;2.60;;;;;;;-147.86;100.00;49306.21;105638;1256;72578;-43
2023/11/27 09:26:09;;;;;;;3.90;3.00;;;;;;;-147.86;100.00;49263.46;105619;1259;61144;-42
2023/11/27 09:28:36;;;;;;;4.60;2.90;;;;;;;-147.86;100.00;49208.16;105674;1256;61454;-43
2023/11/27 09:31:07;;;;;;;7.80;3.50;;;;;;;-147.86;100.00;49161.10;105594;1257;72992;-43
2023/11/27 09:33:35;;;;;;;4.00;2.80;;;;;;;-147.86;100.00;49121.88;105665;1260;65868;-43
2023/11/27 09:36:03;;;;;;;3.80;3.00;;;;;;;-147.86;100.00;49095.21;105638;1257;72650;-43
2023/11/27 09:38:30;;;;;;;6.00;3.30;;;;;;;-147.86;100.00;49065.02;105652;1258;61176;-43
2023/11/27 09:41:02;;;;;;;5.60;3.20;;;;;;;-147.86;100.00;49014.82;105628;1257;60109;-43
2023/11/27 09:43:31;;;;;;;2.60;2.40;;;;;;;-147.86;100.00;48984.63;105656;1260;72799;-43
2023/11/27 09:46:04;;;;;;;3.90;3.10;;;;;;;-147.86;100.00;48936.79;105640;1257;63417;-42
2023/11/27 09:48:34;;;;;;;4.40;3.50;;;;;;;-147.86;100.00;48903.45;105716;1258;72625;-41
2023/11/27 09:51:06;;;;;;;3.90;3.20;;;;;;;-147.86;100.00;48902.67;105563;1264;60839;-43
2023/11/27 09:53:39;;;;;;;4.50;2.90;;;;;;;-147.86;100.00;48872.86;105583;1256;60342;-43
2023/11/27 09:56:08;;;;;;;7.00;4.10;;;;;;;-147.86;100.00;48863.06;105539;1258;73805;-40
2023/11/27 09:58:42;;;;;;;8.60;4.00;;;;;;;-147.86;100.00;48836.01;105654;1260;64493;-41
2023/11/27 10:01:14;;;;;;;5.50;3.10;;;;;;;-147.86;100.00;48807.38;105642;1257;72100;-41
2023/11/27 10:03:42;;;;;;;4.40;3.00;;;;;;;-147.86;100.00;48786.99;105656;1260;61884;-41
2023/11/27 10:06:11;;;;;;;5.10;3.90;;;;;;;-147.86;100.00;48787.38;105617;1257;59609;-41
2023/11/27 10:08:40;;;;;;;3.90;3.10;;;;;;;-147.86;100.00;48771.30;105619;1257;71523;-42
2023/11/27 10:11:07;;;;;;;6.70;3.60;;;;;;;-147.86;100.00;48790.91;105669;1259;65470;-42
2023/11/27 10:13:36;;;;;;;5.50;3.50;;;;;;;-147.86;100.00;48780.32;105590;1257;72599;-41
2023/11/27 10:16:27;;;;;;;4.70;3.30;;;;;;;-147.86;100.00;48771.70;105605;1260;60855;-42
2023/11/27 10:19:03;;;;;;;7.20;3.70;;;;;;;-147.86;100.00;48741.11;105364;1255;60961;-42
2023/11/27 10:21:35;;;;;;;3.00;2.40;;;;;;;-147.86;100.00;48748.56;105627;1256;72801;-42
2023/11/27 10:24:11;;;;;;;5.90;3.40;;;;;;;-147.86;100.00;48732.09;105643;1259;65353;-41
2023/11/27 10:26:40;;;;;;;6.90;4.20;;;;;;;-147.86;100.00;48721.90;105608;1257;72536;-41
2023/11/27 10:29:08;;;;;;;3.90;3.10;;;;;;;-147.86;100.00;48740.72;105641;1260;61579;-42
2023/11/27 10:31:40;;;;;;;11.50;3.80;;;;;;;-147.86;100.00;48734.05;105675;1257;60652;-42
2023/11/27 10:34:10;;;;;;;4.50;2.70;;;;;;;-147.86;100.00;48735.23;105636;1260;74297;-42
2023/11/27 10:36:37;;;;;;;7.80;3.90;;;;;;;-147.86;100.00;48728.95;105642;1260;65403;-41
2023/11/27 10:39:18;;;;;;;6.50;3.10;;;;;;;-147.86;100.00;48745.03;105607;1257;71979;-42
2023/11/27 10:41:46;;;;;;;5.70;3.70;;;;;;;-147.86;100.00;48750.52;105604;1262;61052;-42
2023/11/27 10:44:15;;;;;;;6.50;4.30;;;;;;;-147.86;100.00;48780.32;105643;1257;60473;-42
2023/11/27 10:46:43;;;;;;;5.40;3.80;;;;;;;-147.86;100.00;48771.30;105571;1258;73987;-43
2023/11/27 10:49:14;;;;;;;5.20;4.00;;;;;;;-147.86;100.00;48780.71;105591;1260;65685;-43
2023/11/27 10:51:47;;;;;;;4.30;3.00;;;;;;;-147.86;100.00;48778.36;105260;1257;72559;-42
2023/11/27 10:54:14;;;;;;;4.90;4.00;;;;;;;-147.86;100.00;48793.26;105283;1260;61459;-42
2023/11/27 10:56:44;;;;;;;5.60;3.80;;;;;;;-147.86;100.00;48779.93;105489;1257;60434;-42
2023/11/27 10:59:15;;;;;;;3.90;3.30;;;;;;;-147.86;100.00;48780.32;105608;1257;73565;-43
2023/11/27 11:01:43;;;;;;;5.10;3.40;;;;;;;-147.86;100.00;48781.50;105615;1260;66237;-44
2023/11/27 11:04:20;;;;;;;5.30;4.40;;;;;;;-147.86;100.00;48776.79;105661;1260;72986;-43
2023/11/27 11:06:49;;;;;;;3.80;3.40;;;;;;;-147.86;100.00;48785.02;105650;1257;61152;-45
2023/11/27 11:09:17;;;;;;;5.90;2.90;;;;;;;-147.86;100.00;48776.79;105586;1263;60498;-42
2023/11/27 11:11:47;;;;;;;5.40;3.00;;;;;;;-147.86;100.00;48762.68;105817;1259;73057;-43
2023/11/27 11:14:16;;;;;;;6.90;3.90;;;;;;;-147.86;100.00;48763.46;105626;1260;64737;-42
2023/11/27 11:16:55;;;;;;;5.70;4.00;;;;;;;-147.86;100.00;48740.71;105580;1257;72702;-42
2023/11/27 11:19:42;;;;;;;4.30;3.80;;;;;;;-147.86;100.00;48736.79;105601;1257;61646;-42
2023/11/27 11:22:14;;;;;;;4.90;3.40;;;;;;;-147.86;100.00;48742.68;105637;1257;60431;-41
2023/11/27 11:24:54;;;;;;;5.80;4.00;;;;;;;-147.86;100.00;48740.32;105610;1260;74199;-42
2023/11/27 11:27:30;;;;;;;6.50;2.20;;;;;;;-147.86;100.00;48763.86;105662;1256;64560;-41
2023/11/27 11:29:58;;;;;;;4.90;3.40;;;;;;;-147.86;100.00;48762.68;105613;1257;71376;-42
2023/11/27 11:32:28;;;;;;;7.40;3.70;;;;;;;-147.86;100.00;48728.17;105618;1257;61470;-41
2023/11/27 11:34:58;;;;;;;9.10;3.50;;;;;;;-147.86;100.00;48753.26;105636;1257;60447;-41
2023/11/27 11:37:28;;;;;;;8.90;4.10;;;;;;;-147.86;100.00;48734.84;105397;1256;73182;-42
2023/11/27 11:39:56;;;;;;;4.80;3.50;;;;;;;-147.86;100.00;48736.01;105406;1257;65692;-42
2023/11/27 11:42:36;;;;;;;5.80;4.00;;;;;;;-147.86;100.00;48737.59;105694;1257;70418;-42
2023/11/27 11:45:06;;;;;;;7.90;3.90;;;;;;;-147.86;100.00;48737.98;105622;1260;60788;-42
2023/11/27 11:47:34;;;;;;;5.00;3.10;;;;;;;-147.86;100.00;48759.93;105657;1257;60446;-42
2023/11/27 11:50:26;;;;;;;6.60;4.60;;;;;;;-147.86;100.00;48751.70;105377;1258;73654;-42
2023/11/27 11:53:20;;;;;;;4.40;3.20;;;;;;;-147.86;100.00;48739.15;105651;1260;65373;-41
2023/11/27 11:55:50;;;;;;;5.10;3.80;;;;;;;-147.86;100.00;48701.11;105590;1257;72388;-41
2023/11/27 11:58:17;;;;;;;3.30;3.00;;;;;;;-147.86;100.00;48696.02;105687;1260;61101;-42
2023/11/27 12:00:47;;;;;;;4.20;3.10;;;;;;;-147.86;100.00;48672.88;105624;1255;60446;-42
2023/11/27 12:03:19;;;;;;;4.10;3.60;;;;;;;-147.86;100.00;48674.45;105624;1259;74219;-42
2023/11/27 12:05:56;;;;;;;7.20;3.70;;;;;;;-147.86;100.00;48651.71;105636;1258;64401;-41
2023/11/27 12:08:25;;;;;;;6.70;4.10;;;;;;;-147.86;100.00;48639.94;105628;1257;73095;-42
2023/11/27 12:10:55;;;;;;;6.30;3.80;;;;;;;-147.86;100.00;48610.14;105574;1257;60667;-42
2023/11/27 12:13:23;;;;;;;7.10;3.50;;;;;;;-147.86;100.00;48621.90;105677;1260;60533;-41
2023/11/27 12:15:52;;;;;;;4.20;3.40;;;;;;;-147.86;100.00;48639.16;105667;1257;72254;-41
2023/11/27 12:18:19;;;;;;;5.00;3.10;;;;;;;-147.86;100.00;48600.73;105587;1260;66121;-41
2023/11/27 12:20:49;;;;;;;8.20;3.80;;;;;;;-147.86;100.00;48603.09;105635;1260;71871;-41
2023/11/27 12:23:17;;;;;;;4.70;3.40;;;;;;;-147.86;100.00;48589.75;105650;1259;61485;-41
2023/11/27 12:25:46;;;;;;;13.00;3.90;;;;;;;-147.86;100.00;48600.34;105666;1257;60976;-41
2023/11/27 12:28:14;;;;;;;5.30;3.80;;;;;;;-147.86;100.00;48567.40;105615;1257;73681;-42
2023/11/27 12:30:45;;;;;;;4.40;3.70;;;;;;;-147.86;100.00;48577.99;105621;1260;66236;-42
2023/11/27 12:33:15;;;;;;;3.10;2.80;;;;;;;-147.86;100.00;48580.34;105689;1257;72481;-41
2023/11/27 12:35:42;;;;;;;5.40;3.70;;;;;;;-147.86;100.00;48565.05;105649;1260;61194;-42
2023/11/27 12:38:11;;;;;;;3.40;3.10;;;;;;;-147.86;100.00;48578.38;105663;1260;60428;-41
2023/11/27 12:40:39;;;;;;;4.60;3.80;;;;;;;-147.86;100.00;48564.27;105675;1260;74160;-41
2023/11/27 12:43:07;;;;;;;7.40;4.40;;;;;;;-147.86;100.00;48547.79;105747;1260;64706;-41
2023/11/27 12:45:44;;;;;;;5.30;3.70;;;;;;;-147.86;100.00;48553.29;105603;1260;72862;-41
2023/11/27 12:48:11;;;;;;;8.20;3.30;;;;;;;-147.86;100.00;48543.48;105607;1263;62090;-41
2023/11/27 12:50:39;;;;;;;3.00;2.50;;;;;;;-147.86;100.00;48533.68;105627;1257;60508;-41
2023/11/27 12:53:09;;;;;;;4.20;2.80;;;;;;;-147.86;100.00;48514.47;105627;1260;73117;-41
2023/11/27 12:55:37;;;;;;;4.50;3.60;;;;;;;-147.86;100.00;48485.46;105636;1256;65169;-42
2023/11/27 12:58:11;;;;;;;4.40;2.80;;;;;;;-147.86;100.00;48481.14;105614;1257;72979;-42
2023/11/27 13:00:46;;;;;;;4.20;3.40;;;;;;;-147.86;100.00;48486.63;105596;1257;61245;-42
2023/11/27 13:03:19;;;;;;;3.30;2.50;;;;;;;-147.86;100.00;48447.81;105615;1257;60421;-41
2023/11/27 13:05:54;;;;;;;3.00;2.60;;;;;;;-147.86;100.00;48452.91;105609;1259;73825;-42
2023/11/27 13:08:24;;;;;;;3.60;3.30;;;;;;;-147.86;100.00;48459.18;105646;1260;65726;-41
2023/11/27 13:10:52;;;;;;;3.60;3.20;;;;;;;-147.86;100.00;48440.75;105599;1257;72080;-41
2023/11/27 13:13:21;;;;;;;4.00;3.40;;;;;;;-147.86;100.00;48451.73;105658;1260;60498;-42
2023/11/27 13:15:49;;;;;;;4.90;4.20;;;;;;;-147.86;100.00;48438.79;105632;1260;60398;-42
2023/11/27 13:18:16;;;;;;;4.90;3.60;;;;;;;-147.86;100.00;48450.16;105667;1256;72619;-42
2023/11/27 13:20:53;;;;;;;5.70;3.30;;;;;;;-147.86;100.00;48457.22;105654;1260;65093;-42
2023/11/27 13:23:27;;;;;;;6.10;3.50;;;;;;;-147.86;100.00;48440.36;105647;1260;73288;-41
2023/11/27 13:26:17;;;;;;;5.10;3.50;;;;;;;-147.86;100.00;48436.44;105597;1259;60773;-41
2023/11/27 13:28:46;;;;;;;7.40;3.70;;;;;;;-147.86;100.00;48456.44;105614;1258;60452;-42
2023/11/27 13:31:22;;;;;;;5.90;3.90;;;;;;;-147.86;100.00;48452.91;105617;1260;74495;-42
2023/11/27 13:33:49;;;;;;;5.20;4.00;;;;;;;-147.86;100.00;48456.83;105592;1258;66073;-42
2023/11/27 13:36:19;;;;;;;6.40;4.00;;;;;;;-147.86;100.00;48443.10;105586;1258;73482;-42
2023/11/27 13:38:47;;;;;;;4.60;3.40;;;;;;;-147.86;100.00;48467.02;105615;1260;61513;-42
2023/11/27 13:41:14;;;;;;;5.10;3.60;;;;;;;-147.86;100.00;48467.81;105654;1257;61095;-42
2023/11/27 13:43:47;;;;;;;4.60;3.10;;;;;;;-147.86;100.00;48467.80;105700;1257;73466;-42
2023/11/27 13:46:14;;;;;;;5.20;3.30;;;;;;;-147.86;100.00;48473.29;105669;1260;65418;-42
2023/11/27 13:48:43;;;;;;;3.90;3.40;;;;;;;-147.86;100.00;48438.79;105544;1257;72615;-42
2023/11/27 13:51:13;;;;;;;4.60;3.40;;;;;;;-147.86;100.00;48451.73;105658;1260;60339;-42
2023/11/27 13:53:41;;;;;;;4.00;3.40;;;;;;;-147.86;100.00;48444.67;105867;1254;60472;-42
2023/11/27 13:56:10;;;;;;;8.50;3.30;;;;;;;-147.86;100.00;48423.11;105889;1252;74038;-42
2023/11/27 13:58:37;;;;;;;4.20;3.70;;;;;;;-147.86;100.00;48419.58;105874;1256;65230;-42
2023/11/27 14:01:10;;;;;;;5.30;3.40;;;;;;;-147.86;100.00;48412.91;105910;1254;72006;-42
2023/11/27 14:03:41;;;;;;;6.30;2.90;;;;;;;-147.86;100.00;48399.58;105913;1256;61104;-42
2023/11/27 14:06:23;;;;;;;4.80;3.50;;;;;;;-147.86;100.00;48411.34;105945;1254;61390;-42
2023/11/27 14:09:04;;;;;;;3.50;2.80;;;;;;;-147.86;100.00;48434.09;105936;1253;73206;-42
2023/11/27 14:11:33;;;;;;;3.70;2.20;;;;;;;-147.86;100.00;48398.40;105945;1257;64928;-42
2023/11/27 14:14:09;;;;;;;5.20;3.10;;;;;;;-147.86;100.00;48399.98;105930;1253;72106;-42
2023/11/27 14:16:43;;;;;;;3.50;3.10;;;;;;;-147.86;100.00;48390.96;105936;1257;62162;-43